createdAt,value
2023-02-28T00:02:08.952Z,60.25
2023-02-28T00:05:02.203Z,61.08
2023-02-28T00:07:53.311Z,58.78
2023-02-28T00:10:39.529Z,61.70
2023-02-28T00:13:26.730Z,57.35
2023-02-28T00:16:16.050Z,59.20
2023-02-28T00:19:02.373Z,58.08
2023-02-28T00:21:48.206Z,57.78
2023-02-28T00:24:34.087Z,63.63
2023-02-28T00:27:19.867Z,57.03
2023-02-28T00:30:07.993Z,59.33
2023-02-28T00:32:53.997Z,57.58
2023-02-28T00:35:40.468Z,54.85
2023-02-28T00:38:28.658Z,55.53
2023-02-28T00:41:14.365Z,55.50
2023-02-28T00:44:00.125Z,60.78
2023-02-28T00:46:45.835Z,52.92
2023-02-28T00:49:33.622Z,57.85
2023-02-28T00:52:19.194Z,55.03
2023-02-28T00:55:05.707Z,57.78
2023-02-28T00:57:52.044Z,55.53
2023-02-28T01:00:37.943Z,55.22
2023-02-28T01:03:24.249Z,62.78
2023-02-28T01:06:13.381Z,61.45
2023-02-28T01:09:00.238Z,58.88
2023-02-28T01:11:46.343Z,58.83
2023-02-28T01:14:32.385Z,61.40
2023-02-28T01:17:18.178Z,56.58
2023-02-28T01:20:05.038Z,56.45
2023-02-28T01:22:50.899Z,60.08
2023-02-28T01:25:37.273Z,61.10
2023-02-28T01:28:24.182Z,60.08
2023-02-28T01:31:11.731Z,55.53
2023-02-28T01:33:57.477Z,58.55
2023-02-28T01:36:47.244Z,51.95
2023-02-28T01:39:33.084Z,61.78
2023-02-28T01:42:19.207Z,61.60
2023-02-28T01:45:28.127Z,60.50
2023-02-28T01:48:13.960Z,58.70
2023-02-28T01:51:06.268Z,63.65
2023-02-28T01:54:03.947Z,60.15
2023-02-28T01:56:55.211Z,61.13
2023-02-28T01:59:56.110Z,59.63
2023-02-28T02:02:50.879Z,55.97
2023-02-28T02:05:39.379Z,58.35
2023-02-28T02:08:29.240Z,60.03
2023-02-28T02:11:22.457Z,59.85
2023-02-28T02:14:11.498Z,57.60
2023-02-28T02:17:19.131Z,64.47
2023-02-28T02:20:48.211Z,60.88
2023-02-28T02:24:00.722Z,59.38
2023-02-28T02:27:03.961Z,65.97
2023-02-28T02:30:03.659Z,60.35
2023-02-28T02:33:10.388Z,61.30
2023-02-28T02:36:01.926Z,55.83
2023-02-28T02:39:15.581Z,58.95
2023-02-28T02:42:04.059Z,56.88
2023-02-28T02:45:04.527Z,56.60
2023-02-28T02:47:51.677Z,56.00
2023-02-28T02:50:59.828Z,57.83
2023-02-28T02:54:02.887Z,66.03
2023-02-28T02:56:49.765Z,61.38
2023-02-28T02:59:36.802Z,58.25
2023-02-28T03:02:23.515Z,56.97
2023-02-28T03:05:43.298Z,62.92
2023-02-28T03:08:30.678Z,61.22
2023-02-28T03:11:17.921Z,57.63
2023-02-28T03:14:07.559Z,55.60
2023-02-28T03:16:59.617Z,58.38
2023-02-28T03:20:08.367Z,59.50
2023-02-28T03:23:18.733Z,56.45
2023-02-28T03:26:16.051Z,63.22
2023-02-28T03:29:18.402Z,58.47
2023-02-28T03:32:15.647Z,59.28
2023-02-28T03:35:07.513Z,60.38
2023-02-28T03:37:59.922Z,58.28
2023-02-28T03:40:51.484Z,60.13
2023-02-28T03:43:39.556Z,62.63
2023-02-28T03:46:28.378Z,57.83
2023-02-28T03:49:22.993Z,63.33
2023-02-28T03:52:09.718Z,56.17
2023-02-28T03:55:01.837Z,66.18
2023-02-28T03:58:28.034Z,66.78
2023-02-28T04:01:32.375Z,59.55
2023-02-28T04:04:19.444Z,65.32
2023-02-28T04:07:09.607Z,64.03
2023-02-28T04:09:55.403Z,59.67
2023-02-28T04:12:41.076Z,63.17
2023-02-28T04:15:28.350Z,60.28
2023-02-28T04:18:14.354Z,61.53
2023-02-28T04:21:01.552Z,64.28
2023-02-28T04:23:47.660Z,61.28
2023-02-28T04:26:37.302Z,69.93
2023-02-28T04:29:35.706Z,66.00
2023-02-28T04:32:21.700Z,59.35
2023-02-28T04:35:14.149Z,60.08
2023-02-28T04:38:00.094Z,59.60
2023-02-28T04:40:46.693Z,61.72
2023-02-28T04:43:33.180Z,59.72
2023-02-28T04:46:21.050Z,66.88
2023-02-28T04:49:06.788Z,60.45
2023-02-28T04:51:53.960Z,68.70
2023-02-28T04:54:40.217Z,57.28
2023-02-28T04:57:26.910Z,61.65
2023-02-28T05:00:16.282Z,62.88
2023-02-28T05:03:03.313Z,61.28
2023-02-28T05:05:49.220Z,63.38
2023-02-28T05:08:35.129Z,60.70
2023-02-28T05:11:40.504Z,62.85
2023-02-28T05:14:26.637Z,66.72
2023-02-28T05:17:13.729Z,67.78
2023-02-28T05:20:13.444Z,65.57
2023-02-28T05:23:03.015Z,84.57
2023-02-28T05:25:49.003Z,99.07
2023-02-28T05:28:34.955Z,73.97
2023-02-28T05:31:20.838Z,76.10
2023-02-28T05:34:07.018Z,78.25
2023-02-28T05:36:53.169Z,67.03
2023-02-28T05:39:39.644Z,60.88
2023-02-28T05:42:25.530Z,62.58
2023-02-28T05:45:13.187Z,86.15
2023-02-28T05:48:00.444Z,71.90
2023-02-28T05:50:47.202Z,80.10
2023-02-28T05:53:33.584Z,94.88
2023-02-28T05:56:19.519Z,75.72
2023-02-28T05:59:05.582Z,100.50
2023-02-28T06:01:54.202Z,100.93
2023-02-28T06:04:41.952Z,82.50
2023-02-28T06:07:28.042Z,92.28
2023-02-28T06:10:16.894Z,83.40
2023-02-28T06:13:06.615Z,82.68
2023-02-28T06:16:02.170Z,66.47
2023-02-28T06:18:47.940Z,62.80
2023-02-28T06:21:33.996Z,60.78
2023-02-28T06:24:21.096Z,54.00
2023-02-28T06:27:07.010Z,64.97
2023-02-28T06:29:56.745Z,57.95
2023-02-28T06:32:42.815Z,54.35
2023-02-28T06:35:28.728Z,65.38
2023-02-28T06:38:23.994Z,53.70
2023-02-28T06:41:11.110Z,56.67
2023-02-28T06:43:57.091Z,50.47
2023-02-28T06:46:44.114Z,52.33
2023-02-28T06:49:30.808Z,54.45
2023-02-28T06:52:17.940Z,53.22
2023-02-28T06:55:06.148Z,56.45
2023-02-28T06:57:53.148Z,63.90
2023-02-28T07:00:38.840Z,57.92
2023-02-28T07:03:26.760Z,58.70
2023-02-28T07:06:12.440Z,60.15
2023-02-28T07:08:59.698Z,51.00
2023-02-28T07:11:45.438Z,62.80
2023-02-28T07:14:31.336Z,63.28
2023-02-28T07:17:17.136Z,60.97
2023-02-28T07:20:05.628Z,75.13
2023-02-28T07:22:57.249Z,79.07
2023-02-28T07:25:43.184Z,75.88
2023-02-28T07:28:30.089Z,73.32
2023-02-28T07:31:16.580Z,71.82
2023-02-28T07:34:06.465Z,65.68
2023-02-28T07:36:54.629Z,73.22
2023-02-28T07:39:43.309Z,84.20
2023-02-28T07:42:29.442Z,78.00
2023-02-28T07:45:15.519Z,70.00
2023-02-28T07:48:01.987Z,67.10
2023-02-28T07:50:56.563Z,71.30
2023-02-28T07:53:42.151Z,75.60
2023-02-28T07:56:28.453Z,67.18
2023-02-28T07:59:14.716Z,63.50
2023-02-28T08:02:00.722Z,71.82
2023-02-28T08:04:46.794Z,68.43
2023-02-28T08:07:33.570Z,70.68
2023-02-28T08:10:19.406Z,75.88
2023-02-28T08:13:05.262Z,85.88
2023-02-28T08:15:51.179Z,89.68
2023-02-28T08:18:37.035Z,76.35
2023-02-28T08:21:23.022Z,76.30
2023-02-28T08:24:09.213Z,83.97
2023-02-28T08:26:55.802Z,89.28
2023-02-28T08:29:41.820Z,98.68
2023-02-28T08:32:30.167Z,92.65
2023-02-28T08:35:16.229Z,85.70
2023-02-28T08:38:01.985Z,92.03
2023-02-28T08:40:47.900Z,84.68
2023-02-28T08:43:37.448Z,100.90
2023-02-28T08:46:25.834Z,143.20
2023-02-28T08:49:13.370Z,96.45
2023-02-28T08:51:59.172Z,89.20
2023-02-28T08:54:46.049Z,95.30
2023-02-28T08:57:31.982Z,109.10
2023-02-28T09:00:18.169Z,98.82
2023-02-28T09:03:04.214Z,143.73
2023-02-28T09:06:01.898Z,109.68
2023-02-28T09:08:47.575Z,119.57
2023-02-28T09:11:36.196Z,118.00
2023-02-28T09:14:21.872Z,116.55
2023-02-28T09:17:07.536Z,110.72
2023-02-28T09:19:53.203Z,114.60
2023-02-28T09:22:39.202Z,97.63
2023-02-28T09:25:24.989Z,106.68
2023-02-28T09:28:10.799Z,112.03
2023-02-28T09:30:58.423Z,104.40
2023-02-28T09:33:45.459Z,117.53
2023-02-28T09:36:43.563Z,103.22
2023-02-28T09:39:30.198Z,113.65
2023-02-28T09:42:27.547Z,104.30
2023-02-28T09:45:38.239Z,97.13
2023-02-28T09:48:29.392Z,99.60
2023-02-28T09:51:27.726Z,103.93
2023-02-28T09:54:25.404Z,98.13
2023-02-28T09:57:33.875Z,86.07
2023-02-28T10:00:26.252Z,94.90
2023-02-28T10:03:30.195Z,100.55
2023-02-28T10:06:19.472Z,83.25
2023-02-28T10:09:26.162Z,90.68
2023-02-28T10:12:12.659Z,83.43
2023-02-28T10:15:00.241Z,91.38
2023-02-28T10:17:55.441Z,78.65
2023-02-28T10:20:48.834Z,88.35
2023-02-28T10:23:37.073Z,86.45
2023-02-28T10:26:22.768Z,91.57
2023-02-28T10:29:09.877Z,84.95
2023-02-28T10:31:56.112Z,84.45
2023-02-28T10:34:41.690Z,94.43
2023-02-28T10:37:28.912Z,82.03
2023-02-28T10:40:23.598Z,86.40
2023-02-28T10:43:15.747Z,78.10
2023-02-28T10:46:10.939Z,73.57
2023-02-28T10:49:15.176Z,93.05
2023-02-28T10:52:01.930Z,90.70
2023-02-28T10:54:47.869Z,87.80
2023-02-28T10:57:39.526Z,267.40
2023-02-28T11:00:26.967Z,98.47
2023-02-28T11:03:45.159Z,81.65
2023-02-28T11:06:33.619Z,95.40
2023-02-28T11:09:26.576Z,76.97
2023-02-28T11:12:46.956Z,72.38
2023-02-28T11:15:36.721Z,76.97
2023-02-28T11:18:27.716Z,84.35
2023-02-28T11:21:20.772Z,76.28
2023-02-28T11:24:26.872Z,74.85
2023-02-28T11:27:48.029Z,66.05
2023-02-28T11:30:44.539Z,74.57
2023-02-28T11:33:33.873Z,77.50
2023-02-28T11:36:28.861Z,74.82
2023-02-28T11:39:15.538Z,74.72
2023-02-28T11:42:13.858Z,70.43
2023-02-28T11:45:25.327Z,72.95
2023-02-28T11:48:32.602Z,62.92
2023-02-28T11:51:25.512Z,73.75
2023-02-28T11:54:17.561Z,76.10
2023-02-28T11:57:27.496Z,78.38
2023-02-28T12:00:47.346Z,79.72
2023-02-28T12:03:58.156Z,82.55
2023-02-28T12:07:10.409Z,81.47
2023-02-28T12:10:06.405Z,75.35
2023-02-28T12:13:22.395Z,65.50
2023-02-28T12:16:31.021Z,75.88
2023-02-28T12:19:24.007Z,92.80
2023-02-28T12:22:12.682Z,75.18
2023-02-28T12:25:07.488Z,81.30
2023-02-28T12:27:56.005Z,126.30
2023-02-28T12:30:52.289Z,92.85
2023-02-28T12:33:43.952Z,106.30
2023-02-28T12:36:30.237Z,97.15
2023-02-28T12:39:28.675Z,106.97
2023-02-28T12:42:30.769Z,144.07
2023-02-28T12:45:28.933Z,86.38
2023-02-28T12:48:23.415Z,102.03
2023-02-28T12:51:09.686Z,115.28
2023-02-28T12:54:23.774Z,98.25
2023-02-28T12:57:35.191Z,87.82
2023-02-28T13:00:24.436Z,94.93
2023-02-28T13:03:33.769Z,88.97
2023-02-28T13:06:25.223Z,76.72
2023-02-28T13:09:16.675Z,90.13
2023-02-28T13:12:03.023Z,81.95
2023-02-28T13:14:49.719Z,85.38
2023-02-28T13:17:35.687Z,85.88
2023-02-28T13:20:36.995Z,81.93
2023-02-28T13:23:48.051Z,94.07
2023-02-28T13:26:36.698Z,173.60
2023-02-28T13:29:31.638Z,85.88
2023-02-28T13:32:27.465Z,117.72
2023-02-28T13:35:15.342Z,167.15
2023-02-28T13:38:13.984Z,177.82
2023-02-28T13:41:34.812Z,121.28
2023-02-28T13:44:27.764Z,88.75
2023-02-28T13:47:13.820Z,74.97
2023-02-28T13:50:27.334Z,64.32
2023-02-28T13:53:17.378Z,68.93
2023-02-28T13:56:28.088Z,88.72
2023-02-28T13:59:26.130Z,88.03
2023-02-28T14:02:41.995Z,81.30
2023-02-28T14:05:30.836Z,82.82
2023-02-28T14:08:22.022Z,93.15
2023-02-28T14:11:17.951Z,83.72
2023-02-28T14:14:05.429Z,75.00
2023-02-28T14:16:53.358Z,73.70
2023-02-28T14:19:40.115Z,74.38
2023-02-28T14:22:54.655Z,88.10
2023-02-28T14:28:38.606Z,71.78
2023-02-28T14:31:29.740Z,87.07
2023-02-28T14:34:25.388Z,68.00
2023-02-28T14:37:16.270Z,72.55
2023-02-28T14:40:05.856Z,76.38
2023-02-28T14:43:03.083Z,70.85
2023-02-28T14:45:55.607Z,83.53
2023-02-28T14:48:42.210Z,77.28
2023-02-28T14:51:32.353Z,89.50
2023-02-28T14:54:25.042Z,78.53
2023-02-28T14:57:28.713Z,74.68
2023-02-28T15:00:22.237Z,88.10
2023-02-28T15:03:39.917Z,93.93
2023-02-28T15:06:26.806Z,81.82
2023-02-28T15:09:19.670Z,81.57
2023-02-28T15:12:05.934Z,86.40
2023-02-28T15:14:52.338Z,87.50
2023-02-28T15:17:46.880Z,75.95
2023-02-28T15:20:33.563Z,78.32
2023-02-28T15:23:21.043Z,86.47
2023-02-28T15:26:08.674Z,79.90
2023-02-28T15:29:00.570Z,83.82
2023-02-28T15:31:57.266Z,87.35
2023-02-28T15:34:45.250Z,91.47
2023-02-28T15:37:40.759Z,71.57
2023-02-28T15:40:54.866Z,99.50
2023-02-28T15:46:27.387Z,71.97
2023-02-28T15:49:20.861Z,70.03
2023-02-28T15:52:07.589Z,65.22
2023-02-28T15:54:55.208Z,60.08
2023-02-28T15:57:42.160Z,59.13
2023-02-28T16:00:30.623Z,51.88
2023-02-28T16:03:38.786Z,63.15
2023-02-28T16:06:45.468Z,49.15
2023-02-28T16:09:34.283Z,54.88
2023-02-28T16:12:22.365Z,57.80
2023-02-28T16:15:27.180Z,62.22
2023-02-28T16:18:13.729Z,59.08
2023-02-28T16:21:32.185Z,58.65
2023-02-28T16:24:18.257Z,53.38
2023-02-28T16:27:06.240Z,61.15
2023-02-28T16:29:51.975Z,54.47
2023-02-28T16:32:37.907Z,59.38
2023-02-28T16:35:24.462Z,52.45
2023-02-28T16:38:11.690Z,72.93
2023-02-28T16:41:00.280Z,66.22
2023-02-28T16:43:53.229Z,76.50
2023-02-28T16:46:39.173Z,50.15
2023-02-28T16:49:24.957Z,64.82
2023-02-28T16:52:12.823Z,66.20
2023-02-28T16:54:58.770Z,71.82
2023-02-28T16:57:45.976Z,59.60
2023-02-28T17:00:33.029Z,77.40
2023-02-28T17:12:32.260Z,59.83
2023-02-28T17:15:19.977Z,61.63
2023-02-28T17:18:06.911Z,67.00
2023-02-28T17:20:52.595Z,56.03
2023-02-28T17:23:39.458Z,59.63
2023-02-28T17:26:33.747Z,59.63
2023-02-28T17:29:22.124Z,66.75
2023-02-28T17:32:17.160Z,66.53
2023-02-28T17:35:04.022Z,73.97
2023-02-28T17:37:50.086Z,61.47
2023-02-28T17:40:37.640Z,51.22
2023-02-28T17:43:24.617Z,60.33
2023-02-28T17:46:17.470Z,68.07
2023-02-28T17:49:05.287Z,62.03
2023-02-28T17:51:51.780Z,62.70
2023-02-28T17:54:37.870Z,62.72
2023-02-28T17:57:23.813Z,52.00
2023-02-28T18:00:14.581Z,47.47
2023-02-28T18:03:01.543Z,60.47
2023-02-28T18:05:48.026Z,54.20
2023-02-28T18:08:36.325Z,61.65
2023-02-28T18:11:23.186Z,52.35
2023-02-28T18:14:14.933Z,52.70
2023-02-28T18:17:00.597Z,76.07
2023-02-28T18:19:46.367Z,65.00
2023-02-28T18:22:37.033Z,61.10
2023-02-28T18:25:26.083Z,60.85
2023-02-28T18:28:15.039Z,46.20
2023-02-28T18:31:08.405Z,56.78
2023-02-28T18:33:57.406Z,52.92
2023-02-28T18:36:47.235Z,63.42
2023-02-28T18:39:33.064Z,68.55
2023-02-28T18:42:21.306Z,63.38
2023-02-28T18:45:08.002Z,50.40
2023-02-28T18:47:55.027Z,57.40
2023-02-28T18:50:42.113Z,68.75
2023-02-28T18:53:28.344Z,60.78
2023-02-28T18:56:17.224Z,59.72
2023-02-28T18:59:05.544Z,61.40
2023-02-28T19:01:51.395Z,59.50
2023-02-28T19:04:41.746Z,65.13
2023-02-28T19:07:27.529Z,63.30
2023-02-28T19:10:14.030Z,57.75
2023-02-28T19:13:00.474Z,61.17
2023-02-28T19:15:47.047Z,53.45
2023-02-28T19:18:34.502Z,50.58
2023-02-28T19:21:22.963Z,59.70
2023-02-28T19:24:10.241Z,59.65
2023-02-28T19:26:56.617Z,48.70
2023-02-28T19:29:42.416Z,47.08
2023-02-28T19:32:28.237Z,45.92
2023-02-28T19:35:15.119Z,56.70
2023-02-28T19:38:01.056Z,55.05
2023-02-28T19:40:47.937Z,45.55
2023-02-28T19:43:39.844Z,48.00
2023-02-28T19:46:26.346Z,37.63
2023-02-28T19:49:13.253Z,37.55
2023-02-28T19:51:59.052Z,40.42
2023-02-28T19:54:45.248Z,38.63
2023-02-28T19:57:30.870Z,40.88
2023-02-28T20:00:17.139Z,37.55
2023-02-28T20:03:02.853Z,48.13
2023-02-28T20:05:49.216Z,42.40
2023-02-28T20:08:35.552Z,42.40
2023-02-28T20:11:21.699Z,40.42
2023-02-28T20:14:07.680Z,35.95
2023-02-28T20:16:57.919Z,35.20
2023-02-28T20:19:44.054Z,37.17
2023-02-28T20:22:29.916Z,31.27
2023-02-28T20:25:21.075Z,44.15
2023-02-28T20:28:11.605Z,45.97
2023-02-28T20:30:57.344Z,36.97
2023-02-28T20:33:46.706Z,37.45
2023-02-28T20:36:33.037Z,44.92
2023-02-28T20:39:19.335Z,38.80
2023-02-28T20:42:06.053Z,43.08
2023-02-28T20:45:35.927Z,46.22
2023-02-28T20:48:22.380Z,49.35
2023-02-28T20:51:08.702Z,46.65
2023-02-28T20:53:54.303Z,41.97
2023-02-28T20:56:40.444Z,33.03
2023-02-28T20:59:26.373Z,35.45
2023-02-28T21:02:15.971Z,31.33
2023-02-28T21:05:01.930Z,44.28
2023-02-28T21:07:48.015Z,39.45
2023-02-28T21:10:33.695Z,34.63
2023-02-28T21:13:19.520Z,31.08
2023-02-28T21:16:17.551Z,35.60
2023-02-28T21:19:06.370Z,26.83
2023-02-28T21:21:54.913Z,33.85
2023-02-28T21:24:40.850Z,36.90
2023-02-28T21:27:27.011Z,28.58
2023-02-28T21:30:13.284Z,21.08
2023-02-28T21:32:59.377Z,24.23
2023-02-28T21:35:45.033Z,28.30
2023-02-28T21:38:32.101Z,24.98
2023-02-28T21:41:20.216Z,25.15
2023-02-28T21:44:06.273Z,27.65
2023-02-28T21:46:55.232Z,36.45
2023-02-28T21:49:41.336Z,21.45
2023-02-28T21:52:27.373Z,29.38
2023-02-28T21:55:13.685Z,22.48
2023-02-28T21:57:59.551Z,27.70
2023-02-28T22:00:46.987Z,22.45
2023-02-28T22:03:34.193Z,24.48
2023-02-28T22:06:22.043Z,23.77
2023-02-28T22:09:12.608Z,24.40
2023-02-28T22:11:58.890Z,26.13
2023-02-28T22:14:46.238Z,26.08
2023-02-28T22:17:31.876Z,25.98
2023-02-28T22:20:17.560Z,29.73
2023-02-28T22:23:03.253Z,24.33
2023-02-28T22:25:49.412Z,24.08
2023-02-28T22:28:36.520Z,28.75
2023-02-28T22:31:26.236Z,28.08
2023-02-28T22:34:13.016Z,18.60
2023-02-28T22:36:58.974Z,21.75
2023-02-28T22:39:45.773Z,26.30
2023-02-28T22:42:34.653Z,28.42
2023-02-28T22:45:20.498Z,22.98
2023-02-28T22:48:07.941Z,27.85
2023-02-28T22:51:02.188Z,20.38
2023-02-28T22:53:49.434Z,23.02
2023-02-28T22:56:35.794Z,22.40
2023-02-28T22:59:21.760Z,32.72
2023-02-28T23:02:08.014Z,23.10
2023-02-28T23:04:55.269Z,31.23
2023-02-28T23:07:42.645Z,23.05
2023-02-28T23:10:28.466Z,22.48
2023-02-28T23:13:14.582Z,17.75
2023-02-28T23:16:00.513Z,21.15
2023-02-28T23:18:46.698Z,23.15
2023-02-28T23:21:33.071Z,20.88
2023-02-28T23:24:22.213Z,24.90
2023-02-28T23:27:08.287Z,25.75
2023-02-28T23:29:53.998Z,18.50
2023-02-28T23:32:40.392Z,23.00
2023-02-28T23:35:26.127Z,18.60
2023-02-28T23:38:11.821Z,24.88
2023-02-28T23:40:57.478Z,21.63
2023-02-28T23:43:44.940Z,19.55
2023-02-28T23:46:31.354Z,28.75
2023-02-28T23:49:21.545Z,20.70
2023-02-28T23:52:07.533Z,18.58
2023-02-28T23:54:53.427Z,16.00
2023-02-28T23:57:39.406Z,20.15
